Upały Początek: 25-06-2019 11:30 Koniec: 26-06-2019 19:00 Ostrzeżenie dla: Upały Poziom: Pomarańczowy
Pogoda niebezpieczna.
info button

Raporty Pogodowe z Lotnisk

 

EPKK - Krakow/Balice, Poland
Odległość od stacji: Zd 81km
Aktualizacja: 26/06/2019 14:00
Małe zachmurzenie
Małe zachmurzenie
 Wiatr z Zd
Wiatr: Zd 17 km/h
Temperatura: 33°C
Heat Index: 34°C
Punkt Rosy: 18°C
Wilgotność Względna: 41%
Ciśnienie Względne: 1022 hPa
Chmury: Małe zachmurzenie
Widoczność: 10 km
Szczegóły chmur: Małe zachmurzenie 1524 m
2019/06/26 12:00 EPKK 261200Z 26009KT 230V290 9999 FEW050 33/18 Q1022
EPRZ - Rzeszow/Jasionka, Poland
Odległość od stacji: Ws 81km
Aktualizacja: 26/06/2019 14:00
Bezchmurnie
Bezchmurnie
 Wiatr z PdPdZd
Wiatr: PdPdZd 15 km/h
Temperatura: 33°C
Heat Index: 34°C
Punkt Rosy: 19°C
Wilgotność Względna: 44%
Ciśnienie Względne: 1022 hPa
Podsumowanie: Bezchmurnie
Widoczność: większa niż 10 km
2019/06/26 12:00 EPRZ 261200Z 20008KT 170V240 CAVOK 33/19 Q1022
 
EPKT - Katowice/Pyrzowice, Poland
Odległość od stacji: ZdPnZd 141km
Aktualizacja: 26/06/2019 14:00
Bezchmurnie
Bezchmurnie
 Wiatr z PdZd
Wiatr: PdZd 24 km/h
Temperatura: 33°C
Punkt Rosy: 16°C
Wilgotność Względna: 36%
Ciśnienie Względne: 1022 hPa
Podsumowanie: Bezchmurnie
Widoczność: większa niż 10 km
2019/06/26 12:00 EPKT 261200Z 23013KT 200V260 CAVOK 33/16 Q1022
EPWA - Warsaw/Okecie, Poland
Odległość od stacji: Pn 240km
Aktualizacja: 26/06/2019 14:00
Bezchmurnie
Bezchmurnie
 Wiatr z PdZd
Wiatr: PdZd 15 km/h
Temperatura: 35°C
Punkt Rosy: 18°C
Wilgotność Względna: 36%
Ciśnienie Względne: 1019 hPa
Podsumowanie: Bezchmurnie
Widoczność: większa niż 10 km
2019/06/26 12:00 EPWA 261200Z 22008KT 190V260 CAVOK 35/18 Q1019 NOSIG
 
EPLL - Lodz/Lublinek, Poland
Odległość od stacji: PnPnZd 218km
Aktualizacja: 26/06/2019 14:00
Bezchmurnie
Bezchmurnie
 Wiatr z PdZd
Wiatr: PdZd 22 km/h
Temperatura: 34°C
Punkt Rosy: 15°C
Wilgotność Względna: 32%
Ciśnienie Względne: 1020 hPa
Podsumowanie: Bezchmurnie
Widoczność: większa niż 10 km
2019/06/26 12:00 EPLL 261200Z 23012KT 190V260 CAVOK 34/15 Q1020
EPWR - Wroclaw/Strachowice, Poland
Odległość od stacji: ZdPnZd 311km
Aktualizacja: 26/06/2019 14:00
Bezchmurnie
Bezchmurnie
 Wiatr z PdZd
Wiatr: PdZd 17 km/h
Temperatura: 35°C
Punkt Rosy: 17°C
Wilgotność Względna: 34%
Ciśnienie Względne: 1020 hPa
Podsumowanie: Bezchmurnie
Widoczność: większa niż 10 km
2019/06/26 12:00 EPWR 261200Z 23009KT 200V270 CAVOK 35/17 Q1020
 
EPGD - Gdansk/Rebiechowo, Poland
Odległość od stacji: PnZd 553km
Aktualizacja: 26/06/2019 14:00
Bezchmurnie
Bezchmurnie
 Wiatr z Zd
Wiatr: Zd 17 km/h
Temperatura: 32°C
Punkt Rosy: 16°C
Wilgotność Względna: 38%
Ciśnienie Względne: 1017 hPa
Podsumowanie: Bezchmurnie
Widoczność: większa niż 10 km
2019/06/26 12:00 EPGD 261200Z 26009KT 230V290 CAVOK 32/16 Q1017
EPSC - Szczecin/Goleniow, Poland
Odległość od stacji: ZdPnZd 635km
Aktualizacja: 26/06/2019 14:00
Bezchmurnie
Bezchmurnie
 Wiatr z Zd
Wiatr: Zd 22 km/h
Temperatura: 34°C
Punkt Rosy: 18°C
Wilgotność Względna: 39%
Ciśnienie Względne: 1017 hPa
Podsumowanie: Bezchmurnie
Widoczność: większa niż 10 km
2019/06/26 12:00 EPSC 261200Z 27012KT 230V320 CAVOK 34/18 Q1017